Hlavní strana
METAR-TAF:

METAR-TAF

Letiště :

Mezinárodní letiště Džinnáh

Karáčí, Pákistán

zeměpisná šířka: 24-54N, zeměpisná délka: 067-08E, výška: 21 m

Aktuální stav počasí

Zpráva byla vytvořena před 36 minutami, v 12:25 UTC
Jihozápadní vítr 6 kt
Teplota 27°C
Vlhkost vzduchu 42%
Tlak 1010 hPa
Viditelnost: 6000 m

METAR: OPKC 101225Z 23006KT 6000 NSC 27/13 Q1010 NOSIG

Čas: 18:01 (13:01 UTC)

Předpověď počasí

Zpráva byla vytvořena před 3 hodinami a 1 minutami, v 10:00 UTC
Předpověď platná od 10 v 12 UTC do 11 v 18 UTC
Západojihozápadní vítr 8 kt
Viditelnost: 6000 m
Polojasno ve výšce 2000 ft
Od UTC
Severozápadní vítr 5 kt
Viditelnost: 4000 m
Dočasný
od 11 v 01 UTC do 11 v 05 UTC
Severoseverovýchodní vítr 5 kt
Viditelnost: 3000 m
kouř
Od UTC
Východoseverovýchodní vítr 8 kt s nárazy do 18 kt
Viditelnost: 6000 m

TAF: OPKC 101000Z 1012/1118 24008KT 6000 SCT020 FM 101800 31005KT 4000 NSC TEMPO 1101/1105 03005KT 3000 FU NSC FM 100700 06008G18KT 6000 NSC

Stav a předpovědi počasí z více než 4 000 letišť (zprávy METAR a TAF).

Červené a žluté tečky na mapě představují dostupné meteorologické stanice.

Když kurzor umístíte na tečku, zobrazí se název stanice.

Pak kliknutím zobrazíte stav a předpověď počasí.

Chcete-li změnit mapu, kliknutím na zelené tlačítko se znaménkem +mapu přiblížíte, kliknutím na zelené tlačítko se znaménkem – mapu oddálíte a kliknutím na zelené šipky přejdete na sousední mapy.


METAR-TAF: